sensor_id;sensor_type;location;lat;lon;timestamp;pressure;altitude;pressure_sealevel;temperature;humidity
64675;BME280;51090;51.512;11.332;2023-02-28T00:01:30;100762.97;;;4.12;65.14
64675;BME280;51090;51.512;11.332;2023-02-28T00:03:56;100760.44;;;4.10;65.41
64675;BME280;51090;51.512;11.332;2023-02-28T00:06:23;100754.28;;;4.11;63.55
64675;BME280;51090;51.512;11.332;2023-02-28T00:08:50;100758.06;;;4.07;64.16
64675;BME280;51090;51.512;11.332;2023-02-28T00:11:16;100757.22;;;4.07;62.62
64675;BME280;51090;51.512;11.332;2023-02-28T00:13:45;100762.75;;;4.15;63.91
64675;BME280;51090;51.512;11.332;2023-02-28T00:16:21;100753.91;;;4.16;62.39
64675;BME280;51090;51.512;11.332;2023-02-28T00:18:47;100767.28;;;4.13;65.81
64675;BME280;51090;51.512;11.332;2023-02-28T00:21:14;100753.22;;;4.14;66.06
64675;BME280;51090;51.512;11.332;2023-02-28T00:23:41;100764.91;;;4.21;63.69
64675;BME280;51090;51.512;11.332;2023-02-28T00:26:06;100765.88;;;4.20;64.53
64675;BME280;51090;51.512;11.332;2023-02-28T00:28:32;100765.28;;;4.17;65.23
64675;BME280;51090;51.512;11.332;2023-02-28T00:30:58;100767.34;;;4.24;63.58
64675;BME280;51090;51.512;11.332;2023-02-28T00:33:26;100768.19;;;4.25;63.04
64675;BME280;51090;51.512;11.332;2023-02-28T00:35:52;100763.66;;;4.27;62.65
64675;BME280;51090;51.512;11.332;2023-02-28T00:38:26;100771.63;;;4.25;62.84
64675;BME280;51090;51.512;11.332;2023-02-28T00:40:51;100764.72;;;4.24;61.95
64675;BME280;51090;51.512;11.332;2023-02-28T00:43:17;100760.53;;;4.22;62.70
64675;BME280;51090;51.512;11.332;2023-02-28T00:45:43;100753.91;;;3.92;63.50
64675;BME280;51090;51.512;11.332;2023-02-28T00:48:09;100766.13;;;4.17;60.92
64675;BME280;51090;51.512;11.332;2023-02-28T00:50:35;100755.81;;;3.77;63.60
64675;BME280;51090;51.512;11.332;2023-02-28T00:53:00;100750.28;;;3.69;64.36
64675;BME280;51090;51.512;11.332;2023-02-28T00:55:26;100759.50;;;3.75;65.13
64675;BME280;51090;51.512;11.332;2023-02-28T00:57:52;100752.19;;;3.67;65.38
64675;BME280;51090;51.512;11.332;2023-02-28T01:00:18;100750.28;;;3.69;67.17
64675;BME280;51090;51.512;11.332;2023-02-28T01:02:43;100753.13;;;3.66;66.67
64675;BME280;51090;51.512;11.332;2023-02-28T01:05:09;100752.31;;;3.65;67.12
64675;BME280;51090;51.512;11.332;2023-02-28T01:07:35;100754.72;;;3.68;68.39
64675;BME280;51090;51.512;11.332;2023-02-28T01:10:01;100747.16;;;3.64;68.61
64675;BME280;51090;51.512;11.332;2023-02-28T01:12:26;100743.09;;;3.60;65.58
64675;BME280;51090;51.512;11.332;2023-02-28T01:14:52;100754.94;;;3.65;67.05
64675;BME280;51090;51.512;11.332;2023-02-28T01:17:18;100749.03;;;3.62;67.58
64675;BME280;51090;51.512;11.332;2023-02-28T01:19:44;100744.66;;;3.62;67.89
64675;BME280;51090;51.512;11.332;2023-02-28T01:22:09;100749.47;;;3.68;68.18
64675;BME280;51090;51.512;11.332;2023-02-28T01:24:35;100737.41;;;3.66;68.77
64675;BME280;51090;51.512;11.332;2023-02-28T01:27:02;100746.28;;;3.76;68.59
64675;BME280;51090;51.512;11.332;2023-02-28T01:29:28;100744.72;;;3.74;68.51
64675;BME280;51090;51.512;11.332;2023-02-28T01:31:54;100744.63;;;3.75;69.32
64675;BME280;51090;51.512;11.332;2023-02-28T01:34:20;100745.13;;;3.80;68.51
64675;BME280;51090;51.512;11.332;2023-02-28T01:36:45;100744.19;;;3.81;69.17
64675;BME280;51090;51.512;11.332;2023-02-28T01:39:11;100739.66;;;3.83;68.59
64675;BME280;51090;51.512;11.332;2023-02-28T01:41:38;100741.56;;;3.81;67.75
64675;BME280;51090;51.512;11.332;2023-02-28T01:47:09;100723.00;;;3.71;67.78
64675;BME280;51090;51.512;11.332;2023-02-28T01:49:35;100729.81;;;3.74;67.90
64675;BME280;51090;51.512;11.332;2023-02-28T01:52:01;100731.59;;;3.74;67.66
64675;BME280;51090;51.512;11.332;2023-02-28T01:54:31;100730.22;;;3.81;67.49
64675;BME280;51090;51.512;11.332;2023-02-28T01:57:04;100733.91;;;3.78;65.92
64675;BME280;51090;51.512;11.332;2023-02-28T01:59:43;100695.38;;;3.55;66.41
64675;BME280;51090;51.512;11.332;2023-02-28T02:02:20;100722.25;;;3.69;66.15
64675;BME280;51090;51.512;11.332;2023-02-28T02:05:03;100723.97;;;3.70;65.70
64675;BME280;51090;51.512;11.332;2023-02-28T02:07:38;100721.75;;;3.64;65.27
64675;BME280;51090;51.512;11.332;2023-02-28T02:10:29;100728.03;;;3.75;67.44
64675;BME280;51090;51.512;11.332;2023-02-28T02:19:37;100714.84;;;3.63;67.33
64675;BME280;51090;51.512;11.332;2023-02-28T02:25:24;100714.94;;;3.62;66.99
64675;BME280;51090;51.512;11.332;2023-02-28T02:28:17;100718.75;;;3.58;65.32
64675;BME280;51090;51.512;11.332;2023-02-28T02:31:38;100716.72;;;3.61;68.19
64675;BME280;51090;51.512;11.332;2023-02-28T02:37:27;100703.09;;;3.56;67.50
64675;BME280;51090;51.512;11.332;2023-02-28T02:40:19;100706.47;;;3.58;65.95
64675;BME280;51090;51.512;11.332;2023-02-28T02:48:20;100715.38;;;3.56;68.21
64675;BME280;51090;51.512;11.332;2023-02-28T02:50:52;100707.75;;;3.53;68.71
64675;BME280;51090;51.512;11.332;2023-02-28T02:53:25;100714.00;;;3.63;68.10
64675;BME280;51090;51.512;11.332;2023-02-28T02:55:53;100720.31;;;3.60;69.66
64675;BME280;51090;51.512;11.332;2023-02-28T02:58:25;100707.41;;;3.57;68.85
64675;BME280;51090;51.512;11.332;2023-02-28T03:00:57;100716.72;;;3.61;68.62
64675;BME280;51090;51.512;11.332;2023-02-28T03:03:25;100715.69;;;3.51;68.09
64675;BME280;51090;51.512;11.332;2023-02-28T03:06:00;100716.88;;;3.47;66.48
64675;BME280;51090;51.512;11.332;2023-02-28T03:08:29;100723.88;;;3.46;68.20
64675;BME280;51090;51.512;11.332;2023-02-28T03:11:06;100721.16;;;3.48;67.45
64675;BME280;51090;51.512;11.332;2023-02-28T03:19:33;100716.16;;;3.45;63.15
64675;BME280;51090;51.512;11.332;2023-02-28T03:22:45;100728.63;;;3.41;67.84
64675;BME280;51090;51.512;11.332;2023-02-28T03:25:29;100724.56;;;3.37;69.26
64675;BME280;51090;51.512;11.332;2023-02-28T03:28:18;100715.34;;;3.32;67.46
64675;BME280;51090;51.512;11.332;2023-02-28T03:31:43;100727.03;;;3.39;69.12
64675;BME280;51090;51.512;11.332;2023-02-28T03:34:21;100722.34;;;3.31;69.09
64675;BME280;51090;51.512;11.332;2023-02-28T03:36:55;100719.09;;;3.27;69.78
64675;BME280;51090;51.512;11.332;2023-02-28T03:39:41;100740.03;;;3.66;65.95
64675;BME280;51090;51.512;11.332;2023-02-28T03:42:15;100734.78;;;3.66;66.72
64675;BME280;51090;51.512;11.332;2023-02-28T03:44:56;100712.19;;;3.26;69.29
64675;BME280;51090;51.512;11.332;2023-02-28T03:47:32;100722.03;;;3.23;70.07
64675;BME280;51090;51.512;11.332;2023-02-28T03:52:49;100725.50;;;3.11;70.22
64675;BME280;51090;51.512;11.332;2023-02-28T03:55:17;100706.53;;;2.94;71.58
64675;BME280;51090;51.512;11.332;2023-02-28T03:58:32;100720.59;;;3.06;70.04
64675;BME280;51090;51.512;11.332;2023-02-28T04:01:53;100725.63;;;2.96;70.54
64675;BME280;51090;51.512;11.332;2023-02-28T04:03:54;100718.66;;;2.82;72.14
64675;BME280;51090;51.512;11.332;2023-02-28T04:06:22;100728.31;;;2.82;71.08
64675;BME280;51090;51.512;11.332;2023-02-28T04:08:49;100728.31;;;2.69;71.71
64675;BME280;51090;51.512;11.332;2023-02-28T04:13:40;100734.69;;;2.52;72.47
64675;BME280;51090;51.512;11.332;2023-02-28T04:16:09;100733.72;;;2.53;72.72
64675;BME280;51090;51.512;11.332;2023-02-28T04:18:44;100736.97;;;2.44;72.53
64675;BME280;51090;51.512;11.332;2023-02-28T04:21:11;100728.22;;;2.31;73.69
64675;BME280;51090;51.512;11.332;2023-02-28T04:23:36;100729.75;;;2.21;73.79
64675;BME280;51090;51.512;11.332;2023-02-28T04:26:03;100729.13;;;2.17;74.01
64675;BME280;51090;51.512;11.332;2023-02-28T04:28:29;100724.38;;;2.09;74.91
64675;BME280;51090;51.512;11.332;2023-02-28T04:31:00;100735.41;;;2.14;75.15
64675;BME280;51090;51.512;11.332;2023-02-28T04:33:27;100729.81;;;2.06;74.57
64675;BME280;51090;51.512;11.332;2023-02-28T04:36:05;100733.41;;;2.18;73.97
64675;BME280;51090;51.512;11.332;2023-02-28T04:38:34;100728.13;;;2.05;74.26
64675;BME280;51090;51.512;11.332;2023-02-28T04:41:01;100727.03;;;1.95;74.47
64675;BME280;51090;51.512;11.332;2023-02-28T04:43:30;100731.34;;;1.96;74.50
64675;BME280;51090;51.512;11.332;2023-02-28T04:45:57;100728.66;;;1.83;74.88
64675;BME280;51090;51.512;11.332;2023-02-28T04:48:32;100732.13;;;1.84;74.92
64675;BME280;51090;51.512;11.332;2023-02-28T04:51:06;100721.94;;;1.79;75.23
64675;BME280;51090;51.512;11.332;2023-02-28T04:53:33;100731.28;;;1.69;75.42
64675;BME280;51090;51.512;11.332;2023-02-28T04:55:59;100730.88;;;1.62;75.67
64675;BME280;51090;51.512;11.332;2023-02-28T04:58:25;100717.22;;;1.57;76.03
64675;BME280;51090;51.512;11.332;2023-02-28T05:00:52;100727.94;;;1.67;75.62
64675;BME280;51090;51.512;11.332;2023-02-28T05:03:19;100731.69;;;1.63;75.58
64675;BME280;51090;51.512;11.332;2023-02-28T05:05:46;100738.03;;;1.59;75.74
64675;BME280;51090;51.512;11.332;2023-02-28T05:08:12;100728.53;;;1.58;75.65
64675;BME280;51090;51.512;11.332;2023-02-28T05:10:38;100704.72;;;1.34;76.05
64675;BME280;51090;51.512;11.332;2023-02-28T05:13:05;100738.16;;;1.57;76.17
64675;BME280;51090;51.512;11.332;2023-02-28T05:15:30;100747.09;;;1.53;76.58
64675;BME280;51090;51.512;11.332;2023-02-28T05:17:56;100745.59;;;1.49;76.72
64675;BME280;51090;51.512;11.332;2023-02-28T05:20:22;100745.72;;;1.47;77.02
64675;BME280;51090;51.512;11.332;2023-02-28T05:22:47;100751.13;;;1.44;77.64
64675;BME280;51090;51.512;11.332;2023-02-28T05:25:19;100755.03;;;1.51;77.62
64675;BME280;51090;51.512;11.332;2023-02-28T05:27:45;100760.91;;;1.41;77.62
64675;BME280;51090;51.512;11.332;2023-02-28T05:30:11;100757.47;;;1.40;78.14
64675;BME280;51090;51.512;11.332;2023-02-28T05:32:39;100758.13;;;1.44;78.64
64675;BME280;51090;51.512;11.332;2023-02-28T05:35:09;100755.50;;;1.44;79.06
64675;BME280;51090;51.512;11.332;2023-02-28T05:37:36;100762.97;;;1.36;79.29
64675;BME280;51090;51.512;11.332;2023-02-28T05:40:02;100763.28;;;1.31;79.17
64675;BME280;51090;51.512;11.332;2023-02-28T05:42:31;100771.00;;;1.33;79.48
64675;BME280;51090;51.512;11.332;2023-02-28T05:44:57;100773.91;;;1.28;79.80
64675;BME280;51090;51.512;11.332;2023-02-28T05:47:23;100769.63;;;1.27;80.20
64675;BME280;51090;51.512;11.332;2023-02-28T05:49:48;100765.34;;;1.26;79.89
64675;BME280;51090;51.512;11.332;2023-02-28T05:52:14;100754.59;;;1.16;79.67
64675;BME280;51090;51.512;11.332;2023-02-28T05:54:40;100770.16;;;1.18;80.02
64675;BME280;51090;51.512;11.332;2023-02-28T05:57:06;100769.44;;;1.16;79.95
64675;BME280;51090;51.512;11.332;2023-02-28T05:59:32;100774.81;;;1.13;80.09
64675;BME280;51090;51.512;11.332;2023-02-28T06:01:58;100779.31;;;1.11;80.60
64675;BME280;51090;51.512;11.332;2023-02-28T06:04:24;100775.94;;;1.08;80.84
64675;BME280;51090;51.512;11.332;2023-02-28T06:06:50;100782.09;;;1.07;80.61
64675;BME280;51090;51.512;11.332;2023-02-28T06:09:17;100781.63;;;1.01;81.07
64675;BME280;51090;51.512;11.332;2023-02-28T06:11:43;100791.31;;;0.99;81.46
64675;BME280;51090;51.512;11.332;2023-02-28T06:14:16;100783.97;;;1.05;81.66
64675;BME280;51090;51.512;11.332;2023-02-28T06:16:43;100788.63;;;1.00;82.72
64675;BME280;51090;51.512;11.332;2023-02-28T06:19:09;100786.59;;;1.05;82.76
64675;BME280;51090;51.512;11.332;2023-02-28T06:21:35;100790.03;;;1.06;82.99
64675;BME280;51090;51.512;11.332;2023-02-28T06:24:02;100793.03;;;1.14;82.67
64675;BME280;51090;51.512;11.332;2023-02-28T06:26:29;100792.94;;;1.16;82.48
64675;BME280;51090;51.512;11.332;2023-02-28T06:28:55;100793.84;;;1.15;82.25
64675;BME280;51090;51.512;11.332;2023-02-28T06:31:21;100798.16;;;1.16;82.21
64675;BME280;51090;51.512;11.332;2023-02-28T06:33:48;100799.75;;;1.18;82.01
64675;BME280;51090;51.512;11.332;2023-02-28T06:36:15;100800.47;;;1.20;81.63
64675;BME280;51090;51.512;11.332;2023-02-28T06:38:42;100810.38;;;1.15;81.21
64675;BME280;51090;51.512;11.332;2023-02-28T06:41:08;100813.09;;;1.14;81.62
64675;BME280;51090;51.512;11.332;2023-02-28T06:43:40;100811.88;;;1.19;81.74
64675;BME280;51090;51.512;11.332;2023-02-28T06:46:10;100806.09;;;1.14;82.77
64675;BME280;51090;51.512;11.332;2023-02-28T06:48:36;100811.22;;;1.16;82.94
64675;BME280;51090;51.512;11.332;2023-02-28T06:51:08;100807.03;;;1.27;82.71
64675;BME280;51090;51.512;11.332;2023-02-28T06:53:35;100803.78;;;1.24;83.49
64675;BME280;51090;51.512;11.332;2023-02-28T06:56:09;100795.66;;;1.28;83.36
64675;BME280;51090;51.512;11.332;2023-02-28T06:58:35;100812.75;;;1.34;82.73
64675;BME280;51090;51.512;11.332;2023-02-28T07:01:02;100818.81;;;1.35;82.59
64675;BME280;51090;51.512;11.332;2023-02-28T07:03:28;100816.94;;;1.37;82.61
64675;BME280;51090;51.512;11.332;2023-02-28T07:05:54;100812.81;;;1.33;82.68
64675;BME280;51090;51.512;11.332;2023-02-28T07:08:25;100824.41;;;1.43;82.87
64675;BME280;51090;51.512;11.332;2023-02-28T07:10:57;100822.94;;;1.53;83.22
64675;BME280;51090;51.512;11.332;2023-02-28T07:13:24;100831.59;;;1.53;82.48
64675;BME280;51090;51.512;11.332;2023-02-28T07:16:02;100820.31;;;1.67;82.63
64675;BME280;51090;51.512;11.332;2023-02-28T07:18:28;100828.34;;;1.64;82.49
64675;BME280;51090;51.512;11.332;2023-02-28T07:20:55;100827.97;;;1.70;82.74
64675;BME280;51090;51.512;11.332;2023-02-28T07:23:21;100821.25;;;1.81;82.48
64675;BME280;51090;51.512;11.332;2023-02-28T07:25:47;100830.41;;;1.88;81.78
64675;BME280;51090;51.512;11.332;2023-02-28T07:28:14;100830.00;;;1.94;81.78
64675;BME280;51090;51.512;11.332;2023-02-28T07:30:41;100822.06;;;1.95;81.31
64675;BME280;51090;51.512;11.332;2023-02-28T07:33:07;100827.56;;;2.05;81.05
64675;BME280;51090;51.512;11.332;2023-02-28T07:35:32;100824.38;;;2.14;80.92
64675;BME280;51090;51.512;11.332;2023-02-28T07:37:59;100822.38;;;2.18;79.64
64675;BME280;51090;51.512;11.332;2023-02-28T07:40:25;100830.41;;;2.29;79.42
64675;BME280;51090;51.512;11.332;2023-02-28T07:42:51;100813.69;;;2.17;78.47
64675;BME280;51090;51.512;11.332;2023-02-28T07:45:17;100833.94;;;2.43;79.41
64675;BME280;51090;51.512;11.332;2023-02-28T07:47:44;100827.38;;;2.50;76.96
64675;BME280;51090;51.512;11.332;2023-02-28T07:50:13;100826.88;;;2.57;76.57
64675;BME280;51090;51.512;11.332;2023-02-28T07:52:40;100835.69;;;2.69;77.63
64675;BME280;51090;51.512;11.332;2023-02-28T07:55:08;100839.38;;;2.79;78.06
64675;BME280;51090;51.512;11.332;2023-02-28T07:57:33;100839.09;;;2.84;77.47
64675;BME280;51090;51.512;11.332;2023-02-28T07:59:59;100832.19;;;2.83;75.92
64675;BME280;51090;51.512;11.332;2023-02-28T08:02:25;100832.72;;;2.88;75.58
64675;BME280;51090;51.512;11.332;2023-02-28T08:04:51;100833.97;;;2.95;72.68
64675;BME280;51090;51.512;11.332;2023-02-28T08:07:17;100845.22;;;3.10;73.01
64675;BME280;51090;51.512;11.332;2023-02-28T08:09:44;100821.22;;;3.03;72.00
64675;BME280;51090;51.512;11.332;2023-02-28T08:12:11;100851.03;;;3.28;71.85
64675;BME280;51090;51.512;11.332;2023-02-28T08:14:37;100830.25;;;3.25;70.23
64675;BME280;51090;51.512;11.332;2023-02-28T08:17:04;100834.16;;;3.32;69.91
64675;BME280;51090;51.512;11.332;2023-02-28T08:19:30;100844.75;;;3.43;70.16
64675;BME280;51090;51.512;11.332;2023-02-28T08:21:56;100840.25;;;3.45;67.98
64675;BME280;51090;51.512;11.332;2023-02-28T08:24:22;100836.47;;;3.49;69.55
64675;BME280;51090;51.512;11.332;2023-02-28T08:26:48;100819.16;;;3.47;68.63
64675;BME280;51090;51.512;11.332;2023-02-28T08:29:14;100834.03;;;3.59;70.02
64675;BME280;51090;51.512;11.332;2023-02-28T08:31:41;100829.81;;;3.69;68.76
64675;BME280;51090;51.512;11.332;2023-02-28T08:34:08;100827.19;;;3.82;65.38
64675;BME280;51090;51.512;11.332;2023-02-28T08:36:35;100820.59;;;3.77;62.63
64675;BME280;51090;51.512;11.332;2023-02-28T08:39:01;100829.19;;;3.79;65.82
64675;BME280;51090;51.512;11.332;2023-02-28T08:41:27;100839.16;;;3.86;65.71
64675;BME280;51090;51.512;11.332;2023-02-28T08:43:52;100826.78;;;3.88;66.87
64675;BME280;51090;51.512;11.332;2023-02-28T08:46:19;100834.81;;;3.98;66.32
64675;BME280;51090;51.512;11.332;2023-02-28T08:48:45;100819.53;;;3.92;63.59
64675;BME280;51090;51.512;11.332;2023-02-28T08:51:16;100836.72;;;4.09;58.15
64675;BME280;51090;51.512;11.332;2023-02-28T08:53:45;100829.16;;;4.04;61.14
64675;BME280;51090;51.512;11.332;2023-02-28T08:56:16;100841.28;;;4.18;63.48
64675;BME280;51090;51.512;11.332;2023-02-28T08:58:43;100816.03;;;4.04;64.23
64675;BME280;51090;51.512;11.332;2023-02-28T09:01:13;100846.81;;;4.26;62.07
64675;BME280;51090;51.512;11.332;2023-02-28T09:03:40;100817.38;;;4.10;63.83
64675;BME280;51090;51.512;11.332;2023-02-28T09:06:07;100843.28;;;4.27;62.87
64675;BME280;51090;51.512;11.332;2023-02-28T09:08:34;100847.34;;;4.31;61.22
64675;BME280;51090;51.512;11.332;2023-02-28T09:11:00;100852.41;;;4.34;63.47
64675;BME280;51090;51.512;11.332;2023-02-28T09:13:28;100845.13;;;4.38;60.59
64675;BME280;51090;51.512;11.332;2023-02-28T09:15:59;100856.97;;;4.44;59.06
64675;BME280;51090;51.512;11.332;2023-02-28T09:18:26;100847.53;;;4.41;60.28
64675;BME280;51090;51.512;11.332;2023-02-28T09:20:52;100853.78;;;4.51;60.65
64675;BME280;51090;51.512;11.332;2023-02-28T09:23:18;100854.84;;;4.49;59.04
64675;BME280;51090;51.512;11.332;2023-02-28T09:25:51;100845.34;;;4.59;58.73
64675;BME280;51090;51.512;11.332;2023-02-28T09:28:17;100842.13;;;4.55;59.47
64675;BME280;51090;51.512;11.332;2023-02-28T09:30:50;100855.97;;;4.82;57.07
64675;BME280;51090;51.512;11.332;2023-02-28T09:33:17;100848.13;;;4.93;59.71
64675;BME280;51090;51.512;11.332;2023-02-28T09:35:45;100859.84;;;5.35;57.52
64675;BME280;51090;51.512;11.332;2023-02-28T09:38:10;100862.63;;;5.45;55.43
64675;BME280;51090;51.512;11.332;2023-02-28T09:40:50;100862.16;;;5.62;51.20
64675;BME280;51090;51.512;11.332;2023-02-28T09:43:20;100843.56;;;5.19;56.99
64675;BME280;51090;51.512;11.332;2023-02-28T09:46:08;100855.28;;;5.26;50.14
64675;BME280;51090;51.512;11.332;2023-02-28T09:48:44;100857.31;;;5.22;53.93
64675;BME280;51090;51.512;11.332;2023-02-28T09:53:54;100826.88;;;4.96;55.23
64675;BME280;51090;51.512;11.332;2023-02-28T09:56:40;100854.22;;;5.29;50.29
64675;BME280;51090;51.512;11.332;2023-02-28T09:59:33;100860.78;;;5.34;49.74
64675;BME280;51090;51.512;11.332;2023-02-28T10:05:19;100848.50;;;5.46;50.91
64675;BME280;51090;51.512;11.332;2023-02-28T10:10:48;100855.97;;;5.63;51.55
64675;BME280;51090;51.512;11.332;2023-02-28T10:16:18;100864.09;;;5.83;45.84
64675;BME280;51090;51.512;11.332;2023-02-28T10:19:14;100857.03;;;5.72;44.16
64675;BME280;51090;51.512;11.332;2023-02-28T10:21:55;100853.66;;;5.70;49.93
64675;BME280;51090;51.512;11.332;2023-02-28T10:27:24;100851.53;;;5.75;46.43
64675;BME280;51090;51.512;11.332;2023-02-28T10:29:59;100852.25;;;5.77;46.49
64675;BME280;51090;51.512;11.332;2023-02-28T10:32:31;100852.88;;;5.81;51.42
64675;BME280;51090;51.512;11.332;2023-02-28T10:37:38;100849.84;;;5.85;50.37
64675;BME280;51090;51.512;11.332;2023-02-28T10:40:07;100843.53;;;5.77;51.14
64675;BME280;51090;51.512;11.332;2023-02-28T10:46:04;100848.19;;;5.84;45.51
64675;BME280;51090;51.512;11.332;2023-02-28T10:48:38;100844.81;;;5.82;44.32
64675;BME280;51090;51.512;11.332;2023-02-28T10:51:11;100835.63;;;5.65;49.25
64675;BME280;51090;51.512;11.332;2023-02-28T10:59:22;100841.84;;;5.87;48.63
64675;BME280;51090;51.512;11.332;2023-02-28T11:01:49;100836.34;;;5.79;51.17
64675;BME280;51090;51.512;11.332;2023-02-28T11:07:17;100821.88;;;5.96;48.01
64675;BME280;51090;51.512;11.332;2023-02-28T11:09:48;100821.41;;;6.02;50.00
64675;BME280;51090;51.512;11.332;2023-02-28T11:12:26;100816.97;;;6.02;46.87
64675;BME280;51090;51.512;11.332;2023-02-28T11:15:06;100805.84;;;5.99;48.02
64675;BME280;51090;51.512;11.332;2023-02-28T11:17:44;100819.84;;;5.99;51.31
64675;BME280;51090;51.512;11.332;2023-02-28T11:20:21;100814.31;;;6.14;50.63
64675;BME280;51090;51.512;11.332;2023-02-28T11:22:50;100817.41;;;6.30;51.49
64675;BME280;51090;51.512;11.332;2023-02-28T11:25:26;100816.63;;;6.50;49.47
64675;BME280;51090;51.512;11.332;2023-02-28T11:27:59;100814.03;;;6.71;48.53
64675;BME280;51090;51.512;11.332;2023-02-28T11:30:34;100814.25;;;6.80;48.06
64675;BME280;51090;51.512;11.332;2023-02-28T11:33:18;100808.59;;;6.84;48.99
64675;BME280;51090;51.512;11.332;2023-02-28T11:35:46;100805.25;;;6.82;49.29
64675;BME280;51090;51.512;11.332;2023-02-28T11:38:14;100808.84;;;6.81;49.85
64675;BME280;51090;51.512;11.332;2023-02-28T11:43:35;100806.91;;;6.83;45.72
64675;BME280;51090;51.512;11.332;2023-02-28T11:48:57;100809.84;;;6.69;48.58
64675;BME280;51090;51.512;11.332;2023-02-28T11:51:35;100797.03;;;6.64;44.93
64675;BME280;51090;51.512;11.332;2023-02-28T11:56:47;100802.84;;;6.58;44.41
64675;BME280;51090;51.512;11.332;2023-02-28T12:02:54;100795.63;;;6.60;44.17
64675;BME280;51090;51.512;11.332;2023-02-28T12:28:17;100789.94;;;6.76;46.96
64675;BME280;51090;51.512;11.332;2023-02-28T12:31:01;100740.78;;;6.54;43.86
64675;BME280;51090;51.512;11.332;2023-02-28T12:33:36;100759.44;;;6.62;46.10
64675;BME280;51090;51.512;11.332;2023-02-28T12:36:12;100790.25;;;6.83;46.04
64675;BME280;51090;51.512;11.332;2023-02-28T12:38:53;100772.88;;;6.80;44.89
64675;BME280;51090;51.512;11.332;2023-02-28T12:42:05;100779.44;;;6.86;45.15
64675;BME280;51090;51.512;11.332;2023-02-28T12:44:47;100769.97;;;6.83;45.76
64675;BME280;51090;51.512;11.332;2023-02-28T12:47:18;100772.06;;;6.80;44.85
64675;BME280;51090;51.512;11.332;2023-02-28T12:49:59;100774.44;;;6.83;44.37
64675;BME280;51090;51.512;11.332;2023-02-28T12:52:55;100767.41;;;6.93;44.03
64675;BME280;51090;51.512;11.332;2023-02-28T12:55:42;100766.78;;;6.80;42.29
64675;BME280;51090;51.512;11.332;2023-02-28T13:04:34;100753.53;;;6.91;42.93
64675;BME280;51090;51.512;11.332;2023-02-28T13:07:31;100754.13;;;6.94;43.52
64675;BME280;51090;51.512;11.332;2023-02-28T13:10:04;100739.66;;;6.89;46.80
64675;BME280;51090;51.512;11.332;2023-02-28T13:12:34;100745.38;;;6.94;47.68
64675;BME280;51090;51.512;11.332;2023-02-28T13:15:21;100744.59;;;7.03;43.33
64675;BME280;51090;51.512;11.332;2023-02-28T13:17:55;100705.56;;;6.76;44.23
64675;BME280;51090;51.512;11.332;2023-02-28T13:20:34;100746.91;;;6.96;46.19
64675;BME280;51090;51.512;11.332;2023-02-28T13:23:00;100746.22;;;6.94;47.28
64675;BME280;51090;51.512;11.332;2023-02-28T13:25:51;100742.38;;;7.08;44.18
64675;BME280;51090;51.512;11.332;2023-02-28T13:31:16;100740.56;;;6.99;47.54
64675;BME280;51090;51.512;11.332;2023-02-28T13:38:56;100723.28;;;7.16;43.46
64675;BME280;51090;51.512;11.332;2023-02-28T13:44:19;100722.44;;;7.15;42.91
64675;BME280;51090;51.512;11.332;2023-02-28T14:03:14;100719.03;;;7.25;45.14
64675;BME280;51090;51.512;11.332;2023-02-28T14:05:44;100714.53;;;7.15;47.90
64675;BME280;51090;51.512;11.332;2023-02-28T14:08:21;100702.59;;;7.21;45.78
64675;BME280;51090;51.512;11.332;2023-02-28T14:10:52;100708.59;;;7.23;47.92
64675;BME280;51090;51.512;11.332;2023-02-28T14:13:43;100718.97;;;7.46;46.32
64675;BME280;51090;51.512;11.332;2023-02-28T14:16:14;100714.91;;;7.41;47.48
64675;BME280;51090;51.512;11.332;2023-02-28T14:19:01;100721.91;;;7.52;46.39
64675;BME280;51090;51.512;11.332;2023-02-28T14:21:35;100711.75;;;7.48;45.02
64675;BME280;51090;51.512;11.332;2023-02-28T14:32:50;100721.03;;;7.42;44.55
64675;BME280;51090;51.512;11.332;2023-02-28T14:37:51;100722.66;;;7.33;47.36
64675;BME280;51090;51.512;11.332;2023-02-28T14:40:33;100712.81;;;7.35;44.18
64675;BME280;51090;51.512;11.332;2023-02-28T14:43:04;100717.94;;;7.37;46.39
64675;BME280;51090;51.512;11.332;2023-02-28T14:45:35;100718.94;;;7.36;46.04
64675;BME280;51090;51.512;11.332;2023-02-28T14:48:05;100719.75;;;7.36;47.23
64675;BME280;51090;51.512;11.332;2023-02-28T14:50:36;100720.84;;;7.34;46.33
64675;BME280;51090;51.512;11.332;2023-02-28T14:53:04;100710.19;;;7.35;46.49
64675;BME280;51090;51.512;11.332;2023-02-28T14:55:35;100715.84;;;7.31;46.46
64675;BME280;51090;51.512;11.332;2023-02-28T14:58:06;100717.72;;;7.19;44.98
64675;BME280;51090;51.512;11.332;2023-02-28T15:00:36;100720.41;;;7.29;46.72
64675;BME280;51090;51.512;11.332;2023-02-28T15:03:21;100703.31;;;7.23;43.20
64675;BME280;51090;51.512;11.332;2023-02-28T15:05:55;100710.00;;;7.27;45.36
64675;BME280;51090;51.512;11.332;2023-02-28T15:08:22;100705.78;;;7.15;47.09
64675;BME280;51090;51.512;11.332;2023-02-28T15:13:26;100700.25;;;7.18;46.79
64675;BME280;51090;51.512;11.332;2023-02-28T15:15:59;100714.16;;;7.20;46.28
64675;BME280;51090;51.512;11.332;2023-02-28T15:18:44;100703.44;;;7.22;45.13
64675;BME280;51090;51.512;11.332;2023-02-28T15:21:15;100708.16;;;7.18;46.92
64675;BME280;51090;51.512;11.332;2023-02-28T15:23:48;100694.53;;;7.13;46.54
64675;BME280;51090;51.512;11.332;2023-02-28T15:26:22;100693.97;;;7.09;44.86
64675;BME280;51090;51.512;11.332;2023-02-28T15:29:07;100686.72;;;7.02;43.81
64675;BME280;51090;51.512;11.332;2023-02-28T15:31:44;100698.91;;;7.03;45.83
64675;BME280;51090;51.512;11.332;2023-02-28T15:34:36;100694.19;;;6.96;45.18
64675;BME280;51090;51.512;11.332;2023-02-28T15:37:26;100705.56;;;6.97;44.42